Time;durP1;ratioP1;P1;durP2;ratioP2;P2;SDS_P1;SDS_P2;PMS_P1;PMS_P2;Temp;Humidity;BMP_temperature;BMP_pressure;BME280_temperature;BME280_humidity;BME280_pressure;Samples;Min_cycle;Max_cycle;Signal;HPM_P1;HPM_P2
2022/09/24 00:01:55;;;;;;;36.33;18.40;;;;;;;12.56;100.00;101274.22;6096995;23;19998;-92
2022/09/24 00:04:34;;;;;;;33.88;17.33;;;;;;;12.56;100.00;101288.97;6122537;23;20006;-92
2022/09/24 00:07:03;;;;;;;35.33;17.27;;;;;;;12.57;100.00;101283.72;6106976;23;20013;-92
2022/09/24 00:09:31;;;;;;;32.70;17.05;;;;;;;12.52;100.00;101283.00;6130538;23;20009;-93
2022/09/24 00:12:03;;;;;;;32.78;17.40;;;;;;;12.61;100.00;101289.72;6121478;23;20340;-92
2022/09/24 00:14:31;;;;;;;31.60;16.42;;;;;;;12.59;100.00;101294.97;6121038;23;20017;-93
2022/09/24 00:16:59;;;;;;;33.13;16.65;;;;;;;12.58;100.00;101285.44;6110914;23;20074;-93
2022/09/24 00:19:25;;;;;;;34.28;16.42;;;;;;;12.50;100.00;101276.13;6120949;23;20006;-92
2022/09/24 00:21:50;;;;;;;33.45;16.70;;;;;;;12.53;100.00;101276.06;6123518;23;20013;-93
2022/09/24 00:27:01;;;;;;;28.70;15.07;;;;;;;12.53;100.00;101278.66;6122967;23;20020;-93
2022/09/24 00:29:37;;;;;;;31.23;16.42;;;;;;;12.44;100.00;101263.25;6121144;23;20530;-93
2022/09/24 00:32:05;;;;;;;32.25;15.20;;;;;;;12.43;100.00;101262.41;6122907;23;20455;-92
2022/09/24 00:34:33;;;;;;;31.77;16.38;;;;;;;12.52;100.00;101274.34;6121987;23;20388;-92
2022/09/24 00:37:00;;;;;;;33.20;15.73;;;;;;;12.53;100.00;101284.72;6118059;23;20113;-92
2022/09/24 00:39:31;;;;;;;32.33;15.48;;;;;;;12.40;100.00;101262.50;6122925;23;20005;-92
2022/09/24 00:41:57;;;;;;;29.75;15.10;;;;;;;12.45;100.00;101270.19;6123635;23;20006;-92
2022/09/24 00:44:46;;;;;;;30.73;15.30;;;;;;;12.55;100.00;101290.72;6120423;23;20012;-92
2022/09/24 00:47:31;;;;;;;31.73;15.60;;;;;;;12.55;100.00;101287.28;6121034;23;20137;-92
2022/09/24 00:50:16;;;;;;;31.38;15.48;;;;;;;12.56;100.00;101281.16;6120830;23;20006;-92
2022/09/24 00:53:04;;;;;;;34.88;16.27;;;;;;;12.39;100.00;101252.13;6121402;23;20156;-92
2022/09/24 00:55:38;;;;;;;30.52;15.57;;;;;;;12.37;100.00;101246.09;6122136;23;20424;-92
2022/09/24 00:58:12;;;;;;;;;;;;;;;12.60;100.00;101275.00;6121848;23;20030;-92
2022/09/24 01:00:43;;;;;;;28.50;14.77;;;;;;;12.45;100.00;101251.97;6121863;23;19912;-95
2022/09/24 01:03:32;;;;;;;29.95;14.23;;;;;;;12.56;100.00;101260.34;6122682;23;20010;-96
2022/09/24 01:06:00;;;;;;;30.23;15.07;;;;;;;12.43;100.00;101238.16;6123551;23;20014;-94
2022/09/24 01:08:30;;;;;;;27.13;14.48;;;;;;;12.48;100.00;101241.53;6122712;23;20509;-94
2022/09/24 01:11:22;;;;;;;34.17;15.20;;;;;;;12.59;100.00;101263.75;6121975;23;20018;-95
2022/09/24 01:14:05;;;;;;;32.80;15.52;;;;;;;12.42;100.00;101233.88;6119644;23;20348;-94
2022/09/24 01:17:00;;;;;;;32.03;15.52;;;;;;;12.61;100.00;101250.72;6121263;23;20033;-95
2022/09/24 01:19:40;;;;;;;28.30;14.27;;;;;;;12.60;100.00;101246.41;6120715;23;20002;-94
2022/09/24 01:22:19;;;;;;;27.17;14.32;;;;;;;12.43;100.00;101222.56;6122999;23;20013;-95
2022/09/24 01:25:12;;;;;;;28.50;15.00;;;;;;;12.60;100.00;101247.25;6122118;23;20006;-95
2022/09/24 01:28:23;;;;;;;28.25;14.52;;;;;;;12.52;100.00;101231.00;6122658;23;20010;-95
2022/09/24 01:30:58;;;;;;;27.80;14.23;;;;;;;12.47;100.00;101212.06;6063515;23;20505;-95
2022/09/24 01:33:29;;;;;;;29.67;14.90;;;;;;;12.46;100.00;101223.34;6108366;23;20010;-95
2022/09/24 01:36:07;;;;;;;28.33;14.57;;;;;;;12.38;100.00;101204.47;6120551;23;20010;-95
2022/09/24 01:38:37;;;;;;;28.88;14.75;;;;;;;12.53;100.00;101224.91;6121302;23;20025;-94
2022/09/24 01:41:18;;;;;;;;;;;;;;;;;;;;;
2022/09/24 01:43:50;;;;;;;27.92;14.35;;;;;;;12.39;100.00;101208.78;6123165;23;20103;-95
2022/09/24 01:46:18;;;;;;;27.67;13.77;;;;;;;12.37;100.00;101200.16;6122772;23;20413;-95
2022/09/24 01:48:55;;;;;;;32.15;14.98;;;;;;;12.54;100.00;101228.34;6123372;23;20006;-95
2022/09/24 01:51:34;;;;;;;25.27;12.85;;;;;;;12.36;100.00;101197.59;6123202;23;20001;-96
2022/09/24 01:54:15;;;;;;;29.23;13.70;;;;;;;12.54;100.00;101225.75;6123659;23;20077;-94
2022/09/24 01:56:52;;;;;;;29.98;14.68;;;;;;;12.37;100.00;101194.97;6120485;23;20432;-96
2022/09/24 01:59:43;;;;;;;29.85;15.43;;;;;;;12.43;100.00;101200.00;6121884;23;20005;-92
2022/09/24 02:02:44;;;;;;;29.02;13.77;;;;;;;12.40;100.00;101192.31;6120767;23;20097;-93
2022/09/24 02:05:28;;;;;;;27.90;13.55;;;;;;;12.56;100.00;101216.16;6116230;23;20471;-93
2022/09/24 02:08:09;;;;;;;27.33;14.15;;;;;;;12.41;100.00;101190.56;6120491;23;20516;-93
2022/09/24 02:11:07;;;;;;;27.00;13.43;;;;;;;12.42;100.00;101182.69;6121096;23;20005;-92
2022/09/24 02:14:05;;;;;;;27.20;13.50;;;;;;;12.57;100.00;101208.31;6120132;23;20041;-93
2022/09/24 02:17:08;;;;;;;25.80;13.50;;;;;;;12.42;100.00;101174.91;6118835;23;20599;-92
2022/09/24 02:19:39;;;;;;;26.90;13.65;;;;;;;12.48;100.00;101190.38;6116475;23;20089;-92
2022/09/24 02:22:14;;;;;;;26.45;13.23;;;;;;;12.57;100.00;101204.84;6121879;23;20061;-93
2022/09/24 02:24:48;;;;;;;29.27;14.15;;;;;;;12.42;100.00;101177.50;6119365;23;20439;-93
2022/09/24 02:27:14;;;;;;;;;;;;;;;12.62;100.00;101205.63;6121355;23;20032;-92
2022/09/24 02:29:46;;;;;;;23.98;12.48;;;;;;;12.43;100.00;101176.59;6118462;23;19904;-96
2022/09/24 02:32:25;;;;;;;29.15;14.00;;;;;;;12.49;100.00;101181.66;6122429;23;20002;-95
2022/09/24 02:35:01;;;;;;;27.83;13.23;;;;;;;12.41;100.00;101170.63;6121338;23;20037;-95
2022/09/24 02:37:37;;;;;;;27.40;13.82;;;;;;;12.49;100.00;101193.78;6121719;23;20073;-95
2022/09/24 02:40:17;;;;;;;28.65;14.50;;;;;;;12.53;100.00;101193.69;6122048;23;20017;-95
2022/09/24 02:43:08;;;;;;;28.23;14.18;;;;;;;12.58;100.00;101194.41;6122107;23;20580;-95
2022/09/24 02:46:01;;;;;;;28.50;14.32;;;;;;;12.41;100.00;101167.16;6121719;23;20017;-95
2022/09/24 02:48:43;;;;;;;32.00;15.32;;;;;;;12.42;100.00;101164.50;6133178;23;20653;-95
2022/09/24 02:51:41;;;;;;;30.05;14.00;;;;;;;12.42;100.00;101163.69;6143495;23;20006;-95
2022/09/24 02:54:08;;;;;;;30.20;13.98;;;;;;;12.41;100.00;101162.81;6118762;23;20319;-95
2022/09/24 02:56:36;;;;;;;30.15;14.30;;;;;;;12.43;100.00;101163.63;6120828;23;20017;-95
2022/09/24 02:59:15;;;;;;;26.88;14.02;;;;;;;12.35;100.00;101149.94;6120720;23;20008;-93
2022/09/24 03:04:34;;;;;;;32.20;16.10;;;;;;;12.34;100.00;101155.22;6121459;23;20009;-92
2022/09/24 03:07:02;;;;;;;31.48;15.52;;;;;;;12.40;100.00;101160.25;6120450;23;20444;-92
2022/09/24 03:09:31;;;;;;;33.97;15.95;;;;;;;12.40;100.00;101161.09;6121214;23;20084;-93
2022/09/24 03:11:59;;;;;;;34.65;16.60;;;;;;;12.33;100.00;101150.91;6121050;23;20088;-92
2022/09/24 03:14:25;;;;;;;34.03;16.95;;;;;;;12.31;100.00;101153.53;6119831;23;20006;-93
2022/09/24 03:16:56;;;;;;;34.80;16.20;;;;;;;12.42;100.00;101169.69;6120508;23;20014;-92
2022/09/24 03:19:25;;;;;;;34.47;16.92;;;;;;;12.36;100.00;101156.00;6117945;23;20016;-93
2022/09/24 03:22:01;;;;;;;32.97;17.00;;;;;;;12.30;100.00;101146.63;6120410;23;20014;-92
2022/09/24 03:24:37;;;;;;;33.97;17.48;;;;;;;12.30;100.00;101144.03;6120998;23;20001;-93
2022/09/24 03:27:20;;;;;;;30.48;16.13;;;;;;;12.46;100.00;101176.53;6121515;23;20089;-93
2022/09/24 03:33:01;;;;;;;35.45;17.15;;;;;;;12.33;100.00;101153.50;6122512;23;20643;-93
2022/09/24 03:35:32;;;;;;;38.95;19.48;;;;;;;12.32;100.00;101150.06;6121748;23;20002;-92
2022/09/24 03:38:02;;;;;;;37.67;19.70;;;;;;;12.26;100.00;101135.47;6123008;23;20010;-93
2022/09/24 03:40:33;;;;;;;41.13;20.63;;;;;;;12.34;100.00;101155.22;6122828;23;20069;-93
2022/09/24 03:43:01;;;;;;;43.63;20.08;;;;;;;12.28;100.00;101145.84;6123736;23;19998;-93
2022/09/24 03:45:41;;;;;;;40.75;19.98;;;;;;;12.36;100.00;101156.88;6122209;23;20057;-93
2022/09/24 03:48:06;;;;;;;45.63;22.13;;;;;;;12.32;100.00;101152.66;6122994;23;19997;-92
2022/09/24 03:50:38;;;;;;;49.28;23.05;;;;;;;12.37;100.00;101158.56;6121490;23;20004;-93
2022/09/24 03:53:16;;;;;;;46.90;22.40;;;;;;;12.29;100.00;101142.31;6122145;23;20002;-93
2022/09/24 03:55:46;;;;;;;43.33;21.85;;;;;;;12.28;100.00;101130.25;6121874;23;20037;-92
2022/09/24 03:58:23;;;;;;;46.60;22.85;;;;;;;12.29;100.00;101131.91;6121956;23;20009;-93
2022/09/24 04:01:14;;;;;;;44.45;23.02;;;;;;;12.33;100.00;101138.75;6121187;23;20010;-94
2022/09/24 04:04:02;;;;;;;45.70;22.95;;;;;;;12.34;100.00;101140.47;6120998;23;20432;-94
2022/09/24 04:06:30;;;;;;;45.70;22.35;;;;;;;12.26;100.00;101116.44;6121844;23;20428;-92
2022/09/24 04:09:01;;;;;;;49.40;23.63;;;;;;;12.42;100.00;101145.47;6122454;23;20032;-92
2022/09/24 04:11:29;;;;;;;49.83;23.95;;;;;;;12.28;100.00;101128.47;6124200;23;20002;-92
2022/09/24 04:17:00;;;;;;;45.42;22.92;;;;;;;12.28;100.00;101115.47;6123816;23;20021;-92
2022/09/24 04:19:39;;;;;;;48.15;23.95;;;;;;;12.40;100.00;101131.66;6095965;23;20013;-93
2022/09/24 04:22:15;;;;;;;46.95;23.70;;;;;;;12.42;100.00;101133.31;6120914;23;20013;-92
2022/09/24 04:24:46;;;;;;;44.17;22.38;;;;;;;12.36;100.00;101128.28;6097548;23;20006;-92
2022/09/24 04:27:15;;;;;;;43.00;22.15;;;;;;;12.34;100.00;101119.69;6097086;23;20020;-93
2022/09/24 04:29:40;;;;;;;48.42;23.98;;;;;;;12.38;100.00;101123.03;6097622;23;20400;-93
2022/09/24 04:32:11;;;;;;;48.38;23.40;;;;;;;12.34;100.00;101117.09;6096887;23;20508;-93
2022/09/24 04:34:39;;;;;;;45.60;23.17;;;;;;;12.36;100.00;101117.00;6096021;23;20479;-93
2022/09/24 04:37:05;;;;;;;46.58;23.92;;;;;;;12.28;100.00;101104.25;6096335;23;20025;-91
2022/09/24 04:39:31;;;;;;;46.58;22.55;;;;;;;12.26;100.00;101103.44;6097775;23;20010;-92
2022/09/24 04:42:02;;;;;;;44.13;23.20;;;;;;;12.35;100.00;101116.16;6096582;23;20006;-93
2022/09/24 04:44:30;;;;;;;45.05;22.70;;;;;;;12.36;100.00;101117.00;6096916;23;20007;-92
2022/09/24 04:47:02;;;;;;;43.40;22.23;;;;;;;12.35;100.00;101116.16;6096982;23;20337;-93
2022/09/24 04:49:28;;;;;;;45.30;21.60;;;;;;;12.33;100.00;101117.13;6097981;23;20005;-94
2022/09/24 04:51:59;;;;;;;42.35;21.92;;;;;;;12.38;100.00;101120.44;6092644;23;20149;-92
2022/09/24 04:54:30;;;;;;;42.03;21.25;;;;;;;12.37;100.00;101118.72;6095100;23;20468;-93
2022/09/24 04:57:02;;;;;;;40.75;21.48;;;;;;;12.42;100.00;101133.31;6097182;23;20487;-93
2022/09/24 04:59:36;;;;;;;40.50;21.52;;;;;;;12.30;100.00;101112.84;6097400;23;20336;-93
2022/09/24 05:02:01;;;;;;;44.58;22.67;;;;;;;12.46;100.00;101132.34;6096836;23;20076;-92
2022/09/24 05:04:32;;;;;;;43.00;21.73;;;;;;;12.35;100.00;101116.16;6096596;23;20037;-92
2022/09/24 05:06:58;;;;;;;40.85;21.92;;;;;;;12.44;100.00;101126.31;6096175;23;20005;-93
2022/09/24 05:09:26;;;;;;;43.22;22.05;;;;;;;12.30;100.00;101107.63;6095994;23;20040;-92
2022/09/24 05:11:52;;;;;;;41.33;21.98;;;;;;;12.42;100.00;101130.69;6096859;23;20013;-91
2022/09/24 05:14:17;;;;;;;41.13;22.13;;;;;;;12.38;100.00;101123.03;6095483;23;20044;-92
2022/09/24 05:16:46;;;;;;;50.00;23.38;;;;;;;12.42;100.00;101125.50;6108703;23;20336;-93
2022/09/24 05:19:11;;;;;;;43.88;22.60;;;;;;;12.41;100.00;101129.03;6121486;23;20112;-93
2022/09/24 05:21:37;;;;;;;47.40;22.88;;;;;;;12.39;100.00;101122.16;6120915;23;20427;-92
2022/09/24 05:24:04;;;;;;;43.35;22.15;;;;;;;12.44;100.00;101130.66;6121559;23;20005;-92
2022/09/24 05:29:14;;;;;;;45.67;22.52;;;;;;;12.44;100.00;101133.28;6122671;23;20149;-92
2022/09/24 05:31:39;;;;;;;41.38;21.55;;;;;;;12.36;100.00;101110.06;6123660;23;20386;-91
2022/09/24 05:34:05;;;;;;;41.47;22.10;;;;;;;12.35;100.00;101116.16;6124543;23;20372;-92
2022/09/24 05:36:30;;;;;;;44.80;22.70;;;;;;;12.39;100.00;101125.59;6121553;23;20027;-92
2022/09/24 05:38:56;;;;;;;45.63;21.85;;;;;;;12.48;100.00;101137.50;6123099;23;20009;-95
2022/09/24 05:41:21;;;;;;;41.85;21.67;;;;;;;12.47;100.00;101135.81;6124043;23;20013;-94
2022/09/24 05:43:48;;;;;;;43.17;22.33;;;;;;;12.31;100.00;101111.94;6123699;23;20032;-94
2022/09/24 05:46:13;;;;;;;44.53;21.20;;;;;;;12.38;100.00;101131.69;6122870;23;20009;-94
2022/09/24 05:48:39;;;;;;;41.03;20.90;;;;;;;12.27;100.00;101115.53;6121741;23;20009;-94
2022/09/24 05:51:05;;;;;;;45.28;20.75;;;;;;;12.32;100.00;101123.19;6121125;23;19997;-94
2022/09/24 05:53:31;;;;;;;37.53;20.20;;;;;;;12.29;100.00;101121.53;6121547;23;20037;-95
2022/09/24 05:55:57;;;;;;;38.45;20.23;;;;;;;12.39;100.00;101136.00;6122056;23;20012;-93
2022/09/24 05:58:23;;;;;;;40.15;20.15;;;;;;;12.41;100.00;101144.63;6123031;23;19998;-94
2022/09/24 06:00:49;;;;;;;38.17;19.10;;;;;;;12.32;100.00;101131.84;6120741;23;20031;-94
2022/09/24 06:03:17;;;;;;;38.38;20.17;;;;;;;12.49;100.00;101158.25;6120980;23;20041;-94
2022/09/24 06:05:48;;;;;;;40.85;20.67;;;;;;;12.31;100.00;101132.75;6121926;23;20030;-94
2022/09/24 06:08:15;;;;;;;40.83;20.45;;;;;;;12.42;100.00;101141.09;6121319;23;20400;-94
2022/09/24 06:10:41;;;;;;;35.78;19.10;;;;;;;12.42;100.00;101138.50;6121302;23;20010;-92
2022/09/24 06:13:10;;;;;;;40.13;19.77;;;;;;;12.48;100.00;101156.56;6120474;23;20013;-93
2022/09/24 06:15:37;;;;;;;36.60;18.42;;;;;;;12.48;100.00;101158.31;6121337;23;20006;-94
2022/09/24 06:18:04;;;;;;;36.78;19.13;;;;;;;12.40;100.00;101140.31;6096385;23;20062;-93
2022/09/24 06:20:29;;;;;;;37.25;19.02;;;;;;;12.33;100.00;101130.97;6096565;23;20065;-93
2022/09/24 06:22:56;;;;;;;33.20;18.15;;;;;;;12.39;100.00;101137.75;6120918;23;20024;-93
2022/09/24 06:25:22;;;;;;;35.92;18.52;;;;;;;12.41;100.00;101142.03;6096394;23;20006;-93
2022/09/24 06:28:02;;;;;;;35.25;18.58;;;;;;;12.37;100.00;101131.72;6122641;23;20436;-93
2022/09/24 06:30:37;;;;;;;35.00;18.17;;;;;;;12.47;100.00;101154.84;6097168;23;20018;-93
2022/09/24 06:33:09;;;;;;;34.17;17.50;;;;;;;12.52;100.00;101160.78;6095547;23;20080;-92
2022/09/24 06:35:35;;;;;;;35.17;17.88;;;;;;;12.41;100.00;101147.22;6095561;23;20006;-91
2022/09/24 06:38:03;;;;;;;32.33;17.20;;;;;;;12.42;100.00;101151.50;6096886;23;20002;-93
2022/09/24 06:40:28;;;;;;;34.75;18.80;;;;;;;12.42;100.00;101151.50;6096785;23;20013;-92
2022/09/24 06:42:54;;;;;;;34.03;18.00;;;;;;;12.50;100.00;101161.69;6121823;23;20013;-91
2022/09/24 06:45:20;;;;;;;36.15;18.13;;;;;;;12.49;100.00;101160.84;6095527;23;20017;-91
2022/09/24 06:47:53;;;;;;;31.65;16.60;;;;;;;12.41;100.00;101152.41;6095560;23;20479;-90
2022/09/24 06:50:19;;;;;;;33.08;17.73;;;;;;;12.42;100.00;101161.06;6096008;23;20002;-91
2022/09/24 06:52:44;;;;;;;32.67;17.40;;;;;;;12.50;100.00;101177.31;6121344;23;20006;-91
2022/09/24 06:55:10;;;;;;;34.45;17.20;;;;;;;12.36;100.00;101156.00;6120499;23;20384;-92
2022/09/24 06:57:35;;;;;;;34.08;17.33;;;;;;;12.41;100.00;101164.56;6122353;23;20541;-90
2022/09/24 07:00:01;;;;;;;34.67;17.98;;;;;;;12.43;100.00;101176.59;6122193;23;20012;-90
2022/09/24 07:02:35;;;;;;;36.50;18.00;;;;;;;12.44;100.00;101172.28;6121143;23;20008;-92
2022/09/24 07:05:01;;;;;;;35.47;17.48;;;;;;;12.37;100.00;101155.97;6120985;23;20028;-91
2022/09/24 07:07:29;;;;;;;33.75;17.50;;;;;;;12.38;100.00;101151.63;6122588;23;20444;-92
2022/09/24 07:09:55;;;;;;;35.22;18.00;;;;;;;12.45;100.00;101177.44;6122370;23;20009;-91
2022/09/24 07:12:21;;;;;;;33.33;17.52;;;;;;;12.39;100.00;101159.41;6122454;23;20517;-91
2022/09/24 07:14:47;;;;;;;34.88;18.08;;;;;;;12.49;100.00;101175.59;6097133;23;20015;-91
2022/09/24 07:17:12;;;;;;;33.75;17.25;;;;;;;12.43;100.00;101167.97;6124244;23;20013;-91
2022/09/24 07:19:38;;;;;;;35.72;18.13;;;;;;;12.54;100.00;101181.56;6123920;23;20092;-92
2022/09/24 07:22:04;;;;;;;35.50;17.83;;;;;;;12.51;100.00;101185.06;6122938;23;20010;-91
2022/09/24 07:24:29;;;;;;;36.15;17.80;;;;;;;12.62;100.00;101198.63;6096638;23;20412;-91
2022/09/24 07:26:55;;;;;;;34.67;17.75;;;;;;;12.55;100.00;101189.31;6120580;23;20012;-90
2022/09/24 07:29:21;;;;;;;38.67;18.45;;;;;;;12.59;100.00;101188.34;6123394;23;20033;-91
2022/09/24 07:31:47;;;;;;;38.10;19.05;;;;;;;12.63;100.00;101200.34;6123794;23;20040;-91
2022/09/24 07:34:13;;;;;;;38.15;19.80;;;;;;;12.60;100.00;101194.38;6097871;23;20518;-91
2022/09/24 07:36:39;;;;;;;40.65;20.58;;;;;;;12.62;100.00;101198.63;6097564;23;20010;-91
2022/09/24 07:39:05;;;;;;;39.00;19.85;;;;;;;12.66;100.00;101199.44;6097467;23;20657;-92
2022/09/24 07:41:30;;;;;;;40.42;20.92;;;;;;;12.62;100.00;101197.81;6097062;23;20010;-91
2022/09/24 07:43:56;;;;;;;40.88;21.52;;;;;;;12.65;100.00;101208.97;6123153;23;19998;-91
2022/09/24 07:46:23;;;;;;;39.83;21.25;;;;;;;12.55;100.00;101196.25;6123120;23;20006;-91
2022/09/24 07:48:48;;;;;;;43.13;21.70;;;;;;;12.61;100.00;101196.94;6123936;23;20063;-91
2022/09/24 07:51:15;;;;;;;46.25;22.23;;;;;;;12.58;100.00;101191.81;6123932;23;20080;-91
2022/09/24 07:53:40;;;;;;;43.70;21.85;;;;;;;12.58;100.00;101202.22;6122914;23;20009;-91
2022/09/24 07:56:06;;;;;;;44.65;22.13;;;;;;;12.70;100.00;101226.19;6123470;23;20060;-91
2022/09/24 07:58:31;;;;;;;40.80;21.73;;;;;;;12.64;100.00;101209.84;6124058;23;20012;-91
2022/09/24 08:00:58;;;;;;;42.30;22.23;;;;;;;12.71;100.00;101220.94;6123832;23;20027;-91
2022/09/24 08:03:24;;;;;;;43.03;22.08;;;;;;;12.69;100.00;101217.56;6097274;23;20010;-90
2022/09/24 08:05:50;;;;;;;42.05;22.17;;;;;;;12.67;100.00;101216.75;6122967;23;20025;-90
2022/09/24 08:08:18;;;;;;;44.17;22.50;;;;;;;12.71;100.00;101218.34;6123509;23;20028;-91
2022/09/24 08:10:43;;;;;;;37.80;20.02;;;;;;;12.60;100.00;101204.78;6123467;23;20424;-92
2022/09/24 08:13:09;;;;;;;39.95;20.52;;;;;;;12.63;100.00;101200.34;6124349;23;20006;-91
2022/09/24 08:15:35;;;;;;;37.13;20.25;;;;;;;12.71;100.00;101213.16;6121756;23;20067;-90
2022/09/24 08:18:04;;;;;;;40.55;20.23;;;;;;;12.68;100.00;101212.41;6123607;23;20026;-91
2022/09/24 08:20:32;;;;;;;41.28;21.05;;;;;;;12.66;100.00;101218.47;6123808;23;20013;-91
2022/09/24 08:23:04;;;;;;;46.05;23.75;;;;;;;12.70;100.00;101223.59;6096888;23;20025;-91
2022/09/24 08:25:33;;;;;;;46.92;23.02;;;;;;;12.74;100.00;101230.44;6123736;23;20540;-90
2022/09/24 08:28:05;;;;;;;45.05;22.35;;;;;;;12.73;100.00;101226.97;6121395;23;20440;-90
2022/09/24 08:30:32;;;;;;;43.50;22.42;;;;;;;12.72;100.00;101234.81;6097429;23;20561;-91
2022/09/24 08:33:02;;;;;;;43.70;22.80;;;;;;;12.72;100.00;101230.47;6094597;23;20013;-93
2022/09/24 08:35:31;;;;;;;43.00;22.33;;;;;;;12.64;100.00;101215.06;6094684;23;20010;-91
2022/09/24 08:38:00;;;;;;;46.42;23.92;;;;;;;12.64;100.00;101222.88;6118862;23;20013;-92
2022/09/24 08:40:29;;;;;;;45.20;23.63;;;;;;;12.69;100.00;101221.91;6094054;23;20459;-91
2022/09/24 08:43:22;;;;;;;43.10;23.33;;;;;;;12.86;100.00;101245.72;6122971;23;20089;-91
2022/09/24 08:48:50;;;;;;;47.00;22.52;;;;;;;12.87;100.00;101250.88;6122651;23;20575;-90
2022/09/24 08:51:18;;;;;;;43.15;22.70;;;;;;;12.78;100.00;101238.09;6095024;23;20088;-90
2022/09/24 08:54:04;;;;;;;43.85;23.27;;;;;;;12.72;100.00;101219.22;6120886;23;20006;-92
2022/09/24 08:56:34;;;;;;;42.30;22.02;;;;;;;12.83;100.00;101243.22;6122129;23;20456;-91
2022/09/24 08:59:10;;;;;;;43.75;22.92;;;;;;;12.91;100.00;101251.63;6096324;23;20009;-91
2022/09/24 09:02:05;;;;;;;44.53;22.10;;;;;;;12.84;100.00;101248.34;6119256;23;20421;-91
2022/09/24 09:05:05;;;;;;;42.45;22.15;;;;;;;12.96;100.00;101262.81;6095472;23;20065;-91
2022/09/24 09:08:15;;;;;;;43.53;21.83;;;;;;;13.00;100.00;101259.22;6095615;23;20006;-91
2022/09/24 09:10:42;;;;;;;39.85;20.98;;;;;;;12.95;100.00;101246.34;6105367;23;20013;-91
2022/09/24 09:13:17;;;;;;;44.92;22.27;;;;;;;13.06;100.00;101261.66;6096527;23;20010;-92
2022/09/24 09:15:56;;;;;;;43.55;22.33;;;;;;;12.96;100.00;101250.66;6120494;23;20016;-92
2022/09/24 09:18:28;;;;;;;39.17;20.45;;;;;;;12.90;100.00;101247.31;6095471;23;20010;-92
2022/09/24 09:20:59;;;;;;;46.40;22.65;;;;;;;12.98;100.00;101258.38;6094991;23;20037;-92
2022/09/24 09:23:38;;;;;;;45.50;22.20;;;;;;;13.11;100.00;101275.38;6095277;23;20560;-92
2022/09/24 09:26:09;;;;;;;44.45;22.75;;;;;;;13.11;100.00;101270.19;6121988;23;20088;-92
2022/09/24 09:28:34;;;;;;;46.75;23.20;;;;;;;13.00;100.00;101248.81;6120731;23;20370;-92
2022/09/24 09:31:09;;;;;;;41.38;22.33;;;;;;;13.14;100.00;101275.34;6122173;23;20008;-92
2022/09/24 09:33:43;;;;;;;;;;;;;;;13.21;100.00;101276.03;6119523;23;20013;-91
2022/09/24 09:36:17;;;;;;;45.67;21.48;;;;;;;13.22;100.00;101277.75;6120137;23;19931;-92
2022/09/24 09:38:53;;;;;;;45.33;21.37;;;;;;;13.18;100.00;101260.47;6122522;23;20001;-91
2022/09/24 09:41:39;;;;;;;41.42;21.60;;;;;;;13.20;100.00;101258.69;6096085;23;20006;-92
2022/09/24 09:44:26;;;;;;;42.58;22.65;;;;;;;13.23;100.00;101262.09;6121235;23;20381;-92
2022/09/24 09:47:17;;;;;;;42.95;21.33;;;;;;;13.30;100.00;101275.78;6121489;23;20037;-92
2022/09/24 09:49:46;;;;;;;45.35;22.25;;;;;;;13.26;100.00;101268.94;6095165;23;20028;-92
2022/09/24 09:52:19;;;;;;;42.00;21.15;;;;;;;13.32;100.00;101268.75;6120659;23;20010;-91
2022/09/24 09:54:45;;;;;;;44.90;22.70;;;;;;;13.31;100.00;101265.31;6122332;23;20002;-92
2022/09/24 09:57:18;;;;;;;39.88;20.90;;;;;;;13.33;100.00;101271.31;6095588;23;20025;-92
2022/09/24 09:59:53;;;;;;;40.33;21.05;;;;;;;13.31;100.00;101265.31;6095506;23;20001;-92
2022/09/24 10:02:29;;;;;;;45.28;22.38;;;;;;;13.32;100.00;101254.00;6095338;23;20005;-92
2022/09/24 10:04:58;;;;;;;39.80;20.75;;;;;;;13.36;100.00;101259.97;6121326;23;20008;-92
2022/09/24 10:07:23;;;;;;;43.03;21.33;;;;;;;13.47;100.00;101273.53;6121357;23;20006;-91
2022/09/24 10:10:15;;;;;;;39.20;21.48;;;;;;;13.35;100.00;101259.13;6095655;23;20434;-92
2022/09/24 10:12:40;;;;;;;45.80;21.63;;;;;;;13.41;100.00;101258.09;6094311;23;20005;-93
2022/09/24 10:15:18;;;;;;;38.33;20.70;;;;;;;13.40;100.00;101251.16;6094363;23;20002;-92
2022/09/24 10:17:45;;;;;;;42.22;21.48;;;;;;;13.42;100.00;101250.25;6116628;23;20072;-91
2022/09/24 10:20:27;;;;;;;44.00;22.77;;;;;;;13.44;100.00;101256.25;6119075;23;20010;-91
2022/09/24 10:23:03;;;;;;;43.05;21.63;;;;;;;13.48;100.00;101249.22;6120131;23;20025;-92
2022/09/24 10:25:36;;;;;;;43.97;22.55;;;;;;;13.61;100.00;101267.94;6120752;23;20010;-92
2022/09/24 10:31:19;;;;;;;43.90;21.75;;;;;;;13.70;100.00;101270.28;6033678;23;20421;-93
2022/09/24 10:33:48;;;;;;;43.58;22.17;;;;;;;13.67;100.00;101271.22;6103197;23;20016;-91
2022/09/24 10:36:26;;;;;;;43.42;22.80;;;;;;;13.63;100.00;101259.19;6120122;23;20044;-92
2022/09/24 10:39:03;;;;;;;41.00;22.00;;;;;;;13.70;100.00;101259.84;6122975;23;20009;-92
2022/09/24 10:41:30;;;;;;;41.80;22.15;;;;;;;13.64;100.00;101247.88;6121785;23;20006;-92
2022/09/24 10:44:01;;;;;;;43.67;22.80;;;;;;;13.71;100.00;101256.34;6122631;23;20005;-92
2022/09/24 10:46:30;;;;;;;42.33;22.33;;;;;;;13.88;100.00;101279.28;6124836;23;20456;-91
2022/09/24 10:48:58;;;;;;;41.35;21.58;;;;;;;13.90;100.00;101270.53;6123397;23;20001;-91
2022/09/24 10:51:38;;;;;;;40.63;21.38;;;;;;;13.76;100.00;101257.06;6122949;23;20006;-92
2022/09/24 10:54:36;;;;;;;39.08;21.67;;;;;;;13.92;100.00;101266.09;6125243;23;20386;-93
2022/09/24 10:57:24;;;;;;;39.78;21.60;;;;;;;13.99;100.00;101278.03;6125685;23;20009;-92
2022/09/24 11:00:15;;;;;;;40.97;21.98;;;;;;;13.99;100.00;101272.84;6127363;23;20539;-92
2022/09/24 11:02:40;;;;;;;39.85;21.33;;;;;;;14.02;100.00;101280.56;6122154;23;20002;-92
2022/09/24 11:05:19;;;;;;;39.35;20.67;;;;;;;14.04;100.00;101276.16;6123287;23;20002;-92
2022/09/24 11:08:32;;;;;;;39.53;21.75;;;;;;;14.08;100.00;101282.97;6124924;23;20002;-91
2022/09/24 11:11:08;;;;;;;40.90;21.10;;;;;;;14.10;100.00;101282.94;6128719;23;20002;-92
2022/09/24 11:14:01;;;;;;;40.30;20.83;;;;;;;14.16;100.00;101288.81;6123282;23;20002;-92
2022/09/24 11:16:59;;;;;;;37.58;20.83;;;;;;;14.08;100.00;101275.16;6123481;23;20022;-92
2022/09/24 11:19:39;;;;;;;37.83;20.52;;;;;;;14.16;100.00;101296.63;6098597;23;20009;-91
2022/09/24 11:22:16;;;;;;;37.95;20.88;;;;;;;14.15;100.00;101291.47;6124553;23;20024;-91
2022/09/24 11:24:47;;;;;;;37.95;21.17;;;;;;;14.15;100.00;101294.06;6122767;23;20009;-92
2022/09/24 11:27:16;;;;;;;38.95;21.08;;;;;;;14.11;100.00;101298.53;6122886;23;20005;-91
2022/09/24 11:29:59;;;;;;;37.35;20.40;;;;;;;14.13;100.00;101299.31;6122945;23;20045;-92
2022/09/24 11:32:51;;;;;;;35.58;20.60;;;;;;;14.11;100.00;101300.28;6123166;23;20013;-92
2022/09/24 11:35:28;;;;;;;38.42;21.35;;;;;;;14.03;100.00;101282.28;6123922;23;20356;-92
2022/09/24 11:38:13;;;;;;;39.53;21.02;;;;;;;14.12;100.00;101294.19;6124385;23;20017;-91
2022/09/24 11:41:03;;;;;;;43.00;21.98;;;;;;;14.17;100.00;101298.34;6122930;23;20610;-92
2022/09/24 11:43:55;;;;;;;37.50;21.00;;;;;;;14.22;100.00;101300.81;6121964;23;20010;-92
2022/09/24 11:46:37;;;;;;;38.47;21.55;;;;;;;14.26;100.00;101298.97;6124128;23;20460;-91
2022/09/24 11:49:22;;;;;;;40.88;22.20;;;;;;;14.28;100.00;101284.97;6121775;23;20068;-92
2022/09/24 11:52:09;;;;;;;41.67;21.35;;;;;;;14.35;100.00;101290.84;6124036;23;20005;-91
2022/09/24 11:54:40;;;;;;;38.75;21.33;;;;;;;14.36;100.00;101288.19;6122568;23;20010;-93